Tiempo atmosférico en la estación meteorológica de Puerto de Pajares, Asturias (1480 m.)



Fecha
DESCASC
Temp. máxima en grados centígrados (hora)
DESCASC
Temp. mínima en grados centígrados (hora)
DESCASC
Temp. media en grados centígrados
DESCASC
Racha de viento máxima en m/sg (hora)
DESCASC
Velocidad máxima media en intervalos de 10 minutos(hora)
DESCASC
Precipitaciones diarias en mm
DESCASC
Precipitaciones de 00:00 a 06:00 en mm
DESCASC
Precipitaciones de 06:00 a 12:00 en mm
DESCASC
Precipitaciones de 12:00 a 18:00 en mm
DESCASC
Precipitaciones de 18:00 a 24:00 en mm
DESCASC

Gráficas

Temp. máximas Temp. mínimas Temp. medias Precipitaciones Rachas de viento máximas Velocidades máximas media en intervalos de 10 minutos

Datos horarios

Fecha y hora oficial Temperatura (ºC) Velocidad del viento (km/h) Dirección del viento Racha (km/h) Dirección de racha Precipitación (mm) Presión (hPa) Tendencia (hPa) Humedad (%)
2020-07-07 23:00:00 14.8 5 Sudoeste 10 Sudoeste 0 -- -- 71
2020-07-07 22:00:00 16.4 3 Sudoeste 10 Sudoeste 0 -- -- 68
2020-07-07 21:00:00 17.8 0 Calma 6 Noroeste 0 -- -- 71
2020-07-07 20:00:00 18.1 4 Noroeste 9 Noroeste 0 -- -- 71
2020-07-07 19:00:00 18.3 5 Noroeste 12 Noroeste 0 -- -- 71
2020-07-07 18:00:00 18.3 6 Noroeste 13 Oeste 0 -- -- 69
2020-07-07 17:00:00 19 6 Oeste 12 Noroeste 0 -- -- 65
2020-07-07 16:00:00 18.6 6 Noroeste 15 Noroeste 0 -- -- 70
2020-07-07 15:00:00 18.6 6 Noroeste 12 Noroeste 0 -- -- 72
2020-07-07 14:00:00 19.4 5 Noroeste 20 Sudeste 0 -- -- 64
2020-07-07 13:00:00 22.8 8 Sudeste 21 Sudeste 0 -- -- 42
2020-07-07 12:00:00 21.5 9 Sur 19 Sudeste 0 -- -- 47
2020-07-07 11:00:00 20.3 11 Sur 22 Sudeste 0 -- -- 55
2020-07-07 10:00:00 18.7 12 Sudeste 21 Sudeste 0 -- -- 58
2020-07-07 09:00:00 17.2 12 Sur 22 Sur 0 -- -- 59
2020-07-07 08:00:00 16.8 12 Sur 25 Sur 0 -- -- 59
2020-07-07 07:00:00 15.3 11 Sur 23 Sur 0 -- -- 63
2020-07-07 06:00:00 14.8 11 Sur 17 Sur 0 -- -- 67
2020-07-07 05:00:00 14.9 10 Sur 16 Sur 0 -- -- 71
2020-07-07 04:00:00 13.5 4 Sur 13 Sur 0 -- -- 77
2020-07-07 03:00:00 11 3 Sur 9 Sudoeste 0 -- -- 82
2020-07-07 02:00:00 9.6 5 Sudoeste 10 Sudoeste 0 -- -- 81
2020-07-07 01:00:00 9.8 7 Sudoeste 9 Sudoeste 0 -- -- 88
2020-07-07 00:00:00 8.9 0 Calma 6 Sudoeste 0 -- -- 89
2020-07-06 23:00:00 10.1 3 Sudoeste 4 Sudoeste 0.1 -- -- 89
2020-07-06 22:00:00 10.8 0 Calma 6 Noroeste 0.3 -- -- 89
2020-07-06 21:00:00 11.2 4 Noroeste 6 Noroeste 0.1 -- -- 89
2020-07-06 20:00:00 11.8 2 Noroeste 8 Noroeste 0.1 -- -- 88
2020-07-06 19:00:00 12.1 4 Noroeste 8 Noroeste 0 -- -- 88
2020-07-06 18:00:00 13 3 Noroeste 10 Noroeste 0 -- -- 88
2020-07-06 17:00:00 12.7 6 Noroeste 10 Noroeste 0 -- -- 88
2020-07-06 16:00:00 13 5 Noroeste 12 Noroeste 0 -- -- 88
2020-07-06 15:00:00 13.1 4 Noroeste 11 Noroeste 0.1 -- -- 88
2020-07-06 14:00:00 12.8 6 Noroeste 11 Noroeste 0 -- -- 88
2020-07-06 13:00:00 12.5 6 Noroeste 12 Noroeste 0 -- -- 89
2020-07-06 12:00:00 12.5 4 Noroeste 11 Noroeste 0 -- -- 89
2020-07-06 11:00:00 11.9 4 Noroeste 11 Noroeste 0 -- -- 89
2020-07-06 10:00:00 11.3 5 Noroeste 10 Noroeste 0.1 -- -- 89
2020-07-06 09:00:00 11.2 4 Noroeste 9 Oeste 0.1 -- -- 89
2020-07-06 08:00:00 11.2 2 Noroeste 6 Noroeste 0 -- -- 89
2020-07-06 07:00:00 11.2 3 Sur 8 Noroeste 0.1 -- -- 89
2020-07-06 06:00:00 11.4 4 Noroeste 13 Noroeste 0.2 -- -- 89
2020-07-06 05:00:00 11.9 6 Noroeste 11 Noroeste 0.1 -- -- 89
2020-07-06 04:00:00 12.2 0 Calma 8 Oeste 0.1 -- -- 89
2020-07-06 03:00:00 12.1 0 Calma 7 Sur 0 -- -- 88
2020-07-06 02:00:00 13 0 Calma 5 Oeste 0 -- -- 89
2020-07-06 01:00:00 13.1 0 Calma 5 Noroeste 0.1 -- -- 89
2020-07-06 00:00:00 13.3 2 Noroeste 7 Noroeste 0.1 -- -- 89
2020-07-05 23:00:00 13.8 2 Norte 10 Noroeste 0 -- -- 89
2020-07-05 22:00:00 14.3 5 Noroeste 10 Noroeste 0 -- -- 88
2020-07-05 21:00:00 15.1 4 Noroeste 9 Noroeste 0 -- -- 87
2020-07-05 20:00:00 16 6 Noroeste 10 Noroeste 0 -- -- 83
2020-07-05 19:00:00 18.2 6 Noroeste 13 Oeste 0 -- -- 75
2020-07-05 18:00:00 18.3 5 Noroeste 16 Noroeste 0 -- -- 74
2020-07-05 17:00:00 19.5 9 Noroeste 19 Noroeste 0 -- -- 70
2020-07-05 16:00:00 19.9 8 Noroeste 18 Noroeste 0 -- -- 65
2020-07-05 15:00:00 20.3 8 Noroeste 19 Noroeste 0 -- -- 59
2020-07-05 14:00:00 20.2 7 Noroeste 14 Noroeste 0 -- -- 58
2020-07-05 13:00:00 19.9 8 Noroeste 14 Noroeste 0 -- -- 53
2020-07-05 12:00:00 19.7 4 Noroeste 10 Noroeste 0 -- -- 49
2020-07-05 11:00:00 19.4 4 Noroeste 8 Noroeste 0 -- -- 48
2020-07-05 10:00:00 18.5 3 Noroeste 8 Noroeste 0 -- -- 47
2020-07-05 09:00:00 17.8 4 Noroeste 10 Noroeste 0 -- -- 49
2020-07-05 08:00:00 16.7 0 Calma 6 Sur 0 -- -- 56
2020-07-05 07:00:00 11.4 4 Sudoeste 8 Sudoeste 0 -- -- 72
2020-07-05 06:00:00 11.6 4 Sudoeste 9 Sur 0 -- -- 66
2020-07-05 05:00:00 12.4 6 Sur 11 Sudoeste 0 -- -- 62
2020-07-05 04:00:00 12.9 6 Sur 12 Sur 0 -- -- 61
2020-07-05 03:00:00 12.5 8 Sur 11 Sur 0 -- -- 65
2020-07-05 02:00:00 12.5 5 Sudoeste 9 Sudoeste 0 -- -- 68
2020-07-05 01:00:00 12.3 6 Sur 8 Sur 0 -- -- 73
2020-07-05 00:00:00 12.6 4 Sudoeste 7 Oeste 0 -- -- 76
2020-07-04 23:00:00 12.1 5 Sur 11 Sudoeste 0 -- -- 81
2020-07-04 22:00:00 13.7 0 Calma 8 Noroeste 0 -- -- 81
2020-07-04 21:00:00 14.7 5 Norte 12 Noroeste 0 -- -- 73
2020-07-04 20:00:00 17.6 6 Noroeste 18 Oeste 0 -- -- 60
2020-07-04 19:00:00 18.4 9 Noroeste 18 Noroeste 0 -- -- 57
2020-07-04 18:00:00 19 9 Noroeste 19 Noroeste 0 -- -- 49
2020-07-04 17:00:00 19.1 9 Noroeste 19 Noroeste 0 -- -- 45
2020-07-04 16:00:00 19.5 5 Noroeste 18 Noroeste 0 -- -- 40
2020-07-04 15:00:00 19.4 6 Noroeste 15 Noroeste 0 -- -- 37
2020-07-04 14:00:00 18.6 4 Noroeste 13 Norte 0 -- -- 35
2020-07-04 13:00:00 17.6 5 Noroeste 13 Noroeste 0 -- -- 33
2020-07-04 12:00:00 16.9 7 Noroeste 11 Noroeste 0 -- -- 31
2020-07-04 11:00:00 16.3 5 Noroeste 9 Noroeste 0 -- -- 25
2020-07-04 10:00:00 15.3 4 Noroeste 9 Noroeste 0 -- -- 29
2020-07-04 09:00:00 14.9 3 Noroeste 7 Noroeste 0 -- -- 33
2020-07-04 08:00:00 11.4 5 Sudoeste 8 Sur 0 -- -- 43
2020-07-04 07:00:00 7.3 7 Sur 13 Sudoeste 0 -- -- 47
2020-07-04 06:00:00 8.1 12 Sudoeste 14 Sudoeste 0 -- -- 47
2020-07-04 05:00:00 8.4 5 Sudoeste 8 Oeste 0 -- -- 47
2020-07-04 04:00:00 7.6 6 Sur 11 Sudoeste 0 -- -- 58
2020-07-04 03:00:00 8.3 6 Sudoeste 13 Sur 0 -- -- 52
2020-07-04 02:00:00 7.3 7 Sudoeste 11 Sudoeste 0 -- -- 60
2020-07-04 01:00:00 7.7 3 Oeste 10 Oeste 0 -- -- 63
2020-07-04 00:00:00 8.6 5 Oeste 10 Sudoeste 0 -- -- 64
2020-07-03 23:00:00 8.9 6 Sur 11 Sudoeste 0 -- -- 51
2020-07-03 22:00:00 8.6 6 Sur 9 Sur 0 -- -- 72
2020-07-03 21:00:00 10.4 0 Calma 6 Oeste 0 -- -- 85
2020-07-03 20:00:00 11.2 3 Noroeste 13 Noroeste 0 -- -- 82
2020-07-03 19:00:00 11.8 5 Noroeste 19 Noroeste 0 -- -- 80
2020-07-03 18:00:00 12.7 9 Noroeste 18 Noroeste 0 -- -- 68
2020-07-03 17:00:00 13.8 9 Noroeste 18 Noroeste 0 -- -- 66
2020-07-03 16:00:00 13.6 6 Noroeste 15 Noroeste 0 -- -- 66
2020-07-03 15:00:00 12.7 5 Noroeste 13 Noroeste 0 -- -- 75
2020-07-03 14:00:00 11.3 5 Noroeste 14 Noroeste 0 -- -- 81
2020-07-03 13:00:00 9.8 2 Oeste 12 Noroeste 0 -- -- 89
2020-07-03 12:00:00 7.8 5 Noroeste 11 Noroeste 0 -- -- 90
2020-07-03 11:00:00 6.9 4 Noroeste 10 Noroeste 0 -- -- 90
2020-07-03 10:00:00 5.7 4 Noroeste 9 Noroeste 0 -- -- 90
2020-07-03 09:00:00 4.7 0 Calma 7 Noroeste 0 -- -- 90
2020-07-03 08:00:00 4.4 0 Calma 7 Oeste 0 -- -- 90
2020-07-03 07:00:00 4.2 4 Oeste 10 Oeste 0 -- -- 90
2020-07-03 06:00:00 4.2 5 Oeste 11 Oeste 0 -- -- 90
2020-07-03 05:00:00 4.9 3 Noroeste 10 Oeste 0.1 -- -- 90
2020-07-03 04:00:00 5 4 Noroeste 10 Oeste 0.2 -- -- 90
2020-07-03 03:00:00 4.8 5 Oeste 10 Oeste 0.1 -- -- 90
2020-07-03 02:00:00 4.2 2 Noroeste 12 Noroeste 0 -- -- 90
2020-07-03 01:00:00 4.4 6 Noroeste 14 Noroeste 0.1 -- -- 90
2020-07-03 00:00:00 4.8 6 Noroeste 17 Noroeste 0.2 -- -- 90
2020-07-02 23:00:00 5.1 7 Noroeste 21 Noroeste 0.3 -- -- 90
2020-07-02 22:00:00 5 12 Noroeste 24 Noroeste 1 -- -- 90
2020-07-02 21:00:00 5.3 8 Noroeste 24 Oeste 1.7 -- -- 90
2020-07-02 20:00:00 6.3 12 Noroeste 26 Noroeste 0.7 -- -- 90
2020-07-02 19:00:00 6.7 11 Noroeste 26 Noroeste 1.3 -- -- 90
2020-07-02 18:00:00 7.2 11 Noroeste 22 Noroeste 0.7 -- -- 90
2020-07-02 17:00:00 7.4 11 Noroeste 20 Noroeste 0.4 -- -- 90
2020-07-02 16:00:00 7.3 8 Noroeste 15 Noroeste 0.1 -- -- 90
2020-07-02 15:00:00 7.1 9 Noroeste 18 Noroeste 0.1 -- -- 90
2020-07-02 14:00:00 7.1 8 Noroeste 15 Noroeste 0.2 -- -- 90
2020-07-02 13:00:00 7.5 7 Noroeste 13 Noroeste 0 -- -- 90
2020-07-02 12:00:00 7.3 6 Noroeste 12 Noroeste 0 -- -- 89
2020-07-02 11:00:00 7.7 5 Noroeste 13 Noroeste 0 -- -- 89
2020-07-02 10:00:00 7.6 4 Noroeste 9 Noroeste 0 -- -- 89
2020-07-02 09:00:00 7.1 5 Noroeste 8 Noroeste 0.1 -- -- 89
2020-07-02 08:00:00 7.1 0 Calma 5 Noroeste 0.1 -- -- 89
2020-07-02 07:00:00 7 3 Noroeste 7 Noroeste 0.3 -- -- 89
2020-07-02 06:00:00 7.6 3 Noroeste 6 Norte 0.3 -- -- 89
2020-07-02 05:00:00 8 3 Noroeste 6 Norte 0.3 -- -- 89
2020-07-02 04:00:00 8.1 5 Noroeste 10 Noroeste 0.3 -- -- 89
2020-07-02 03:00:00 8.5 4 Noroeste 6 Noroeste 0.3 -- -- 89
2020-07-02 02:00:00 8.7 0 Calma 9 Sudeste 0.1 -- -- 89
2020-07-02 01:00:00 9.1 0 Calma 5 Sur 0.1 -- -- 89
2020-07-02 00:00:00 9.5 3 Sur 6 Noroeste 0.1 -- -- 89
2020-07-01 23:00:00 9.7 0 Calma 6 Noroeste 0.2 -- -- 89
2020-07-01 22:00:00 10.3 3 Noroeste 6 Noroeste 0.1 -- -- 89
2020-07-01 21:00:00 10.8 0 Calma 7 Noroeste 0.1 -- -- 89
2020-07-01 20:00:00 11.5 4 Noroeste 7 Noroeste 0 -- -- 89
2020-07-01 19:00:00 11.7 3 Norte 9 Noroeste 0.3 -- -- 89
2020-07-01 18:00:00 12.3 4 Noroeste 10 Noroeste 0 -- -- 89
2020-07-01 17:00:00 12.9 4 Noroeste 14 Noroeste 0 -- -- 89
2020-07-01 16:00:00 12.9 7 Noroeste 17 Noroeste 0 -- -- 88
2020-07-01 15:00:00 15.2 8 Noroeste 16 Noroeste 0 -- -- 80
2020-07-01 14:00:00 16.8 6 Noroeste 14 Noroeste 0 -- -- 71
2020-07-01 13:00:00 15.5 6 Norte 14 Noroeste 0 -- -- 76
2020-07-01 12:00:00 14.6 6 Noroeste 11 Noroeste 0 -- -- 80
2020-07-01 11:00:00 12.9 3 Oeste 9 Noroeste 0 -- -- 83
2020-07-01 10:00:00 14.6 2 Norte 8 Norte 0 -- -- 81
2020-07-01 09:00:00 16.3 3 Norte 6 Sudeste 0 -- -- 69
2020-07-01 08:00:00 12.1 0 Calma 10 Sudoeste 0 -- -- 83
2020-07-01 07:00:00 10.9 8 Sur 12 Sur 0 -- -- 70
2020-07-01 06:00:00 11.8 9 Sudoeste 12 Sudoeste 0 -- -- 68
2020-07-01 05:00:00 13.1 10 Sudoeste 13 Sudoeste 0 -- -- 75
2020-07-01 04:00:00 13.4 6 Sudoeste 14 Sudoeste 0 -- -- 71
2020-07-01 03:00:00 13.7 10 Sudoeste 17 Sur 0 -- -- 64
2020-07-01 02:00:00 13.3 4 Sur 17 Sur 0 -- -- 68
2020-07-01 01:00:00 12.2 4 Sur 9 Sur 0 -- -- 72
2020-07-01 00:00:00 12.5 3 Sur 9 Sudoeste 0 -- -- 75
2020-06-30 23:00:00 13 0 Calma 13 Sudoeste 0 -- -- 81
2020-06-30 22:00:00 13.9 10 Sudoeste 14 Sudoeste 0 -- -- 67
2020-06-30 21:00:00 13.7 6 Noroeste 13 Oeste 0.1 -- -- 69
2020-06-30 20:00:00 16.1 5 Sudoeste 18 Sudoeste 0.5 -- -- 55
2020-06-30 19:00:00 15.2 2 Sudoeste 21 Oeste 2.4 -- -- 65
2020-06-30 18:00:00 15.6 3 Norte 14 Noroeste 0.9 -- -- 74
2020-06-30 17:00:00 16.1 4 Sudoeste 14 Noroeste 0.2 -- -- 73
2020-06-30 16:00:00 18.9 5 Noroeste 13 Noroeste 0 -- -- 59
2020-06-30 15:00:00 19.1 4 Noroeste 14 Noroeste 0 -- -- 57
2020-06-30 14:00:00 18.6 9 Noroeste 14 Norte 0 -- -- 56
2020-06-30 13:00:00 18.6 5 Norte 17 Este 0 -- -- 57
2020-06-30 12:00:00 20.5 6 Sudeste 24 Sudeste 0 -- -- 50
2020-06-30 11:00:00 19.7 8 Sudeste 22 Sudeste 0 -- -- 51
2020-06-30 10:00:00 17.3 12 Sur 19 Sudeste 0 -- -- 57
2020-06-30 09:00:00 16.2 5 Sur 14 Sudeste 0 -- -- 60
2020-06-30 08:00:00 14.4 0 Calma 8 Sudoeste 0 -- -- 73
2020-06-30 07:00:00 11.5 6 Sur 10 Sudoeste 0 -- -- 75
2020-06-30 06:00:00 11.3 7 Sudoeste 9 Sudoeste 0 -- -- 78
2020-06-30 05:00:00 10.7 4 Sudoeste 9 Sudoeste 0 -- -- 78
2020-06-30 04:00:00 10.6 5 Sudoeste 9 Sudoeste 0 -- -- 73
2020-06-30 03:00:00 10.4 5 Sudoeste 8 Sudoeste 0 -- -- 69
2020-06-30 02:00:00 9.9 3 Oeste 8 Sur 0 -- -- 71
2020-06-30 01:00:00 8.9 6 Sur 9 Sur 0 -- -- 73
2020-06-30 00:00:00 9.8 0 Calma 7 Sudoeste 0 -- -- 74
2020-06-29 23:00:00 11.1 5 Sudoeste 9 Sudoeste 0 -- -- 65
2020-06-29 22:00:00 11.7 5 Sudoeste 8 Sur 0 -- -- 77
2020-06-29 21:00:00 14.1 4 Noroeste 9 Noroeste 0 -- -- 74
2020-06-29 20:00:00 15.3 5 Noroeste 11 Noroeste 0 -- -- 68
2020-06-29 19:00:00 16 4 Oeste 13 Noroeste 0 -- -- 60
2020-06-29 18:00:00 15.7 5 Noroeste 14 Oeste 0 -- -- 64
2020-06-29 17:00:00 15.7 7 Noroeste 15 Noroeste 0 -- -- 64
2020-06-29 16:00:00 15.2 7 Noroeste 15 Noroeste 0 -- -- 69
2020-06-29 15:00:00 14.2 5 Noroeste 13 Noroeste 0 -- -- 74
2020-06-29 14:00:00 13.5 5 Oeste 13 Noroeste 0 -- -- 81
2020-06-29 13:00:00 12.3 3 Oeste 9 Noroeste 0 -- -- 88
2020-06-29 12:00:00 11.6 5 Noroeste 9 Noroeste 0 -- -- 89
2020-06-29 11:00:00 11.6 5 Noroeste 9 Noroeste 0 -- -- 89
2020-06-29 10:00:00 11.1 4 Noroeste 8 Noroeste 0 -- -- 89
2020-06-29 09:00:00 10.4 4 Noroeste 7 Noroeste 0.1 -- -- 90
2020-06-29 08:00:00 9.8 2 Noroeste 5 Norte 0 -- -- 90
2020-06-29 07:00:00 9.5 0 Calma 4 Sur 0 -- -- 90
2020-06-29 06:00:00 9.5 0 Calma 5 Sudoeste 0 -- -- 90
2020-06-29 05:00:00 9.9 0 Calma 4 Noroeste 0 -- -- 90
2020-06-29 04:00:00 10.1 0 Calma 6 Noroeste 0.2 -- -- 90
2020-06-29 03:00:00 10.5 0 Calma 5 Oeste 0.2 -- -- 90
2020-06-29 02:00:00 10.7 3 Norte 8 Noroeste 0.3 -- -- 90
2020-06-29 01:00:00 11.1 5 Noroeste 8 Noroeste 0.5 -- -- 90
2020-06-29 00:00:00 11.2 4 Noroeste 8 Noroeste 0.7 -- -- 90
2020-06-28 23:00:00 11.5 5 Noroeste 13 Noroeste 0.7 -- -- 90
2020-06-28 22:00:00 11.6 7 Noroeste 13 Noroeste 1 -- -- 90
2020-06-28 21:00:00 11.9 8 Noroeste 15 Noroeste 0.7 -- -- 90
2020-06-28 20:00:00 12.6 6 Noroeste 17 Noroeste 0 -- -- 90
2020-06-28 19:00:00 12.8 9 Noroeste 17 Noroeste 0 -- -- 89
2020-06-28 18:00:00 13.4 8 Noroeste 18 Noroeste 0 -- -- 88
2020-06-28 17:00:00 15.1 8 Noroeste 18 Noroeste 0 -- -- 81
2020-06-28 16:00:00 15.5 9 Noroeste 16 Noroeste 0 -- -- 72
2020-06-28 15:00:00 16.6 7 Noroeste 17 Noroeste 0 -- -- 67
2020-06-28 14:00:00 16.5 6 Noroeste 19 Noroeste 0 -- -- 64
2020-06-28 13:00:00 17.8 5 Noroeste 14 Noroeste 0 -- -- 56
2020-06-28 12:00:00 17.9 5 Norte 15 Noroeste 0 -- -- 60
2020-06-28 11:00:00 16.5 3 Norte 13 Norte 0 -- -- 62
2020-06-28 10:00:00 14.9 7 Norte 12 Norte 0 -- -- 64
2020-06-28 09:00:00 13.2 3 Noroeste 9 Norte 0 -- -- 68
2020-06-28 08:00:00 12.9 4 Noroeste 8 Noroeste 0 -- -- 71
2020-06-28 07:00:00 9.6 3 Oeste 12 Sur 0 -- -- 79
2020-06-28 06:00:00 9.7 5 Sudoeste 13 Sur 0 -- -- 74
2020-06-28 05:00:00 9.1 6 Sudoeste 16 Sur 0 -- -- 74
2020-06-28 04:00:00 9.4 9 Sudoeste 13 Sur 0 -- -- 74
2020-06-28 03:00:00 11.3 7 Sur 15 Sur 0 -- -- 68
2020-06-28 02:00:00 10.8 8 Sudoeste 11 Sudoeste 0 -- -- 68
2020-06-28 01:00:00 10.3 9 Sudoeste 12 Sudoeste 0 -- -- 73
2020-06-28 00:00:00 9.8 8 Sur 11 Sur 0 -- -- 78
2020-06-27 23:00:00 11.5 2 Sudoeste 14 Sudoeste 0 -- -- 73
2020-06-27 22:00:00 12.3 0 Calma 13 Sudoeste 0 -- -- 75
2020-06-27 21:00:00 13.9 3 Noroeste 11 Noroeste 0 -- -- 76
2020-06-27 20:00:00 15.8 3 Norte 18 Noroeste 0 -- -- 72
2020-06-27 19:00:00 17.5 7 Noroeste 23 Noroeste 0 -- -- 58
2020-06-27 18:00:00 18.7 4 Oeste 26 Norte 0 -- -- 47
2020-06-27 17:00:00 18.4 0 Calma 27 Noroeste 0 -- -- 43
2020-06-27 16:00:00 18 3 Norte 24 Noroeste 0 -- -- 47
2020-06-27 15:00:00 15.7 4 Noroeste 19 Oeste 0 -- -- 63
2020-06-27 14:00:00 15.5 6 Sudoeste 14 Sudoeste 0 -- -- 59
2020-06-27 13:00:00 16.1 7 Oeste 23 Noroeste 0 -- -- 54
2020-06-27 12:00:00 16.8 4 Noroeste 15 Oeste 0 -- -- 52
2020-06-27 11:00:00 14.8 6 Sudoeste 19 Sudoeste 0 -- -- 59
2020-06-27 10:00:00 15.4 5 Noroeste 14 Sur 0 -- -- 59
2020-06-27 09:00:00 15 3 Nordeste 11 Noroeste 0 -- -- 63
2020-06-27 08:00:00 13.3 2 Este 9 Sur 0 -- -- 68
2020-06-27 07:00:00 9.5 2 Sur 9 Sudoeste 0 -- -- 79
2020-06-27 06:00:00 9.5 3 Sudoeste 16 Sudoeste 0 -- -- 77
2020-06-27 05:00:00 9.7 5 Sur 16 Sur 0 -- -- 75
2020-06-27 04:00:00 10.9 14 Sur 22 Sur 0 -- -- 74
2020-06-27 03:00:00 10.8 9 Sur 20 Sur 0 -- -- 72
2020-06-27 02:00:00 11.7 4 Sur 22 Sur 0 -- -- 69
2020-06-27 01:00:00 11.8 12 Sur 21 Sur 0 -- -- 68
2020-06-27 00:00:00 12.1 10 Sur 18 Sur 0 -- -- 69
2020-06-26 23:00:00 11.4 4 Sur 9 Sur 0 -- -- 75
2020-06-26 22:00:00 12.1 5 Sudoeste 13 Sudoeste 0 -- -- 78
2020-06-26 21:00:00 13.1 3 Sudoeste 10 Noroeste 0 -- -- 83
2020-06-26 20:00:00 13.8 5 Noroeste 9 Oeste 0 -- -- 81
2020-06-26 19:00:00 14 3 Noroeste 10 Noroeste 0 -- -- 77
2020-06-26 18:00:00 14.7 2 Norte 9 Oeste 0 -- -- 75
2020-06-26 17:00:00 13.6 4 Norte 14 Norte 0 -- -- 77
2020-06-26 16:00:00 15.7 6 Noroeste 13 Noroeste 0 -- -- 73
2020-06-26 15:00:00 14.8 5 Norte 14 Noroeste 0 -- -- 75
2020-06-26 14:00:00 14.6 7 Noroeste 27 Sudoeste 0 -- -- 74
2020-06-26 13:00:00 14.9 5 Norte 17 Noroeste 0 -- -- 76
2020-06-26 12:00:00 12.5 5 Noroeste 15 Noroeste 0 -- -- 84
2020-06-26 11:00:00 15.2 8 Sur 25 Sur 0 -- -- 59
2020-06-26 10:00:00 14.7 12 Sur 25 Sur 0 -- -- 65
2020-06-26 09:00:00 13.8 7 Sudeste 17 Sudeste 0 -- -- 77
2020-06-26 08:00:00 12.9 10 Sur 21 Sur 0 -- -- 81
2020-06-26 07:00:00 12.7 9 Sur 18 Sur 0 -- -- 81
2020-06-26 06:00:00 12.7 9 Sur 19 Sur 0 -- -- 81
2020-06-26 05:00:00 12.3 11 Sur 19 Sur 0.1 -- -- 89
2020-06-26 04:00:00 9.3 2 Sur 6 Sudoeste 0 -- -- 89
2020-06-26 03:00:00 9.8 4 Sur 5 Sudoeste 0 -- -- 87
2020-06-26 02:00:00 10.9 0 Calma 18 Sur 0 -- -- 82
2020-06-26 01:00:00 13.3 12 Sur 17 Sur 0 -- -- 73
2020-06-26 00:00:00 10.6 6 Sur 11 Sudoeste 0 -- -- 88
2020-06-25 23:00:00 11.1 4 Noroeste 11 Noroeste 0 -- -- 85
2020-06-25 22:00:00 12.5 3 Sudoeste 10 Noroeste 0 -- -- 76
2020-06-25 21:00:00 14.5 3 Noroeste 10 Noroeste 0 -- -- 70
2020-06-25 20:00:00 14.2 3 Oeste 8 Noroeste 0 -- -- 78
2020-06-25 19:00:00 13.7 5 Noroeste 15 Oeste 0 -- -- 87
2020-06-25 18:00:00 12.2 5 Noroeste 11 Oeste 0 -- -- 88
2020-06-25 17:00:00 14 0 Calma 9 Oeste 0.5 -- -- 85
2020-06-25 16:00:00 14.3 4 Noroeste 12 Noroeste 0 -- -- 81
2020-06-25 15:00:00 17.3 5 Noroeste 11 Oeste 0 -- -- 69
2020-06-25 14:00:00 17.1 6 Noroeste 24 Sudeste 0 -- -- 67
2020-06-25 13:00:00 19.2 9 Sudeste 29 Sur 0 -- -- 51
2020-06-25 12:00:00 19 10 Sudeste 26 Sudeste 0 -- -- 50
2020-06-25 11:00:00 19.1 5 Sudeste 22 Sudeste 0 -- -- 47
2020-06-25 10:00:00 18.3 9 Sudeste 22 Sudeste 0 -- -- 49
2020-06-25 09:00:00 16 11 Sudeste 36 Sur 0 -- -- 55
2020-06-25 08:00:00 13.9 17 Sur 32 Sudeste 0 -- -- 56
2020-06-25 07:00:00 14.8 21 Sur 31 Sur 0 -- -- 50
2020-06-25 06:00:00 15 17 Sur 24 Sur 0 -- -- 48
2020-06-25 05:00:00 15 15 Sur 19 Sur 0 -- -- 48
2020-06-25 04:00:00 15.2 12 Sur 19 Sur 0 -- -- 47
2020-06-25 03:00:00 15.8 13 Sur 21 Sur 0 -- -- 47
2020-06-25 02:00:00 14.6 13 Sur 30 Sur 0 -- -- 51
2020-06-25 01:00:00 15.3 26 Sur 41 Sur 0 -- -- 50
2020-06-25 00:00:00 14 15 Sur 35 Sur 0 -- -- 60
2020-06-24 23:00:00 12.5 18 Sur 32 Sur 0.6 -- -- 71
2020-06-24 22:00:00 13.1 10 Sudoeste 30 Sudoeste 0.7 -- -- 69
2020-06-24 21:00:00 12.8 7 Este 41 Sudoeste 4.1 -- -- 70
2020-06-24 20:00:00 13.5 5 Sudeste 19 Sur 2.8 -- -- 70
2020-06-24 19:00:00 15.6 8 Sudoeste 19 Oeste 0.6 -- -- 63
2020-06-24 18:00:00 16.5 3 Sudeste 22 Norte 0.3 -- -- 78
2020-06-24 17:00:00 18.1 11 Nordeste 39 Sur 0 -- -- 59
2020-06-24 16:00:00 22.5 18 Sudeste 58 Este 0 -- -- 37
2020-06-24 15:00:00 23.1 17 Sudeste 36 Sudeste 0 -- -- 37
2020-06-24 14:00:00 24 12 Sudeste 31 Este 0 -- -- 37
2020-06-24 13:00:00 23.5 12 Sudeste 26 Sudeste 0 -- -- 36
2020-06-24 12:00:00 22.8 13 Sudeste 28 Sudeste 0 -- -- 37
2020-06-24 11:00:00 22.3 14 Sudeste 26 Sudeste 0 -- -- 37
2020-06-24 10:00:00 21.3 12 Sudeste 23 Sudeste 0 -- -- 37
2020-06-24 09:00:00 20.1 17 Sur 32 Sur 0 -- -- 38
2020-06-24 08:00:00 19.1 16 Sur 28 Sur 0 -- -- 38
2020-06-24 07:00:00 18.8 18 Sur 25 Sudeste 0 -- -- 38
2020-06-24 06:00:00 18.5 18 Sur 24 Sur 0 -- -- 41
2020-06-24 05:00:00 17.8 15 Sur 25 Sur 0 -- -- 43
2020-06-24 04:00:00 18.3 18 Sudeste 26 Sur 0 -- -- 47
2020-06-24 03:00:00 17.9 22 Sur 29 Sur 0 -- -- 48
2020-06-24 02:00:00 17.7 17 Sur 27 Sur 0 -- -- 51
2020-06-24 01:00:00 18.3 17 Sur 25 Sur 0 -- -- 52
2020-06-24 00:00:00 15.3 10 Sur 13 Sur 0 -- -- 59
2020-06-23 23:00:00 15.6 7 Sudoeste 9 Sudoeste 0 -- -- 63
2020-06-23 22:00:00 16.6 6 Sudoeste 9 Sudoeste 0 -- -- 59
2020-06-23 21:00:00 20.2 3 Noroeste 9 Oeste 0 -- -- 46
2020-06-23 20:00:00 22.1 3 Oeste 9 Oeste 0 -- -- 41
2020-06-23 19:00:00 22.3 4 Oeste 19 Noroeste 0 -- -- 38
2020-06-23 18:00:00 23.5 8 Noroeste 19 Noroeste 0 -- -- 33
2020-06-23 17:00:00 23.7 7 Noroeste 22 Noroeste 0 -- -- 34
2020-06-23 16:00:00 23.9 8 Noroeste 19 Noroeste 0 -- -- 33
2020-06-23 15:00:00 23.6 9 Noroeste 19 Noroeste 0 -- -- 32
2020-06-23 14:00:00 22.7 8 Norte 16 Norte 0 -- -- 30
2020-06-23 13:00:00 23.7 7 Oeste 19 Oeste 0 -- -- 29
2020-06-23 12:00:00 23 8 Sudeste 14 Sudeste 0 -- -- 30
2020-06-23 11:00:00 21.4 10 Sur 24 Sur 0 -- -- 31
2020-06-23 10:00:00 19.3 18 Sur 28 Sur 0 -- -- 33
2020-06-23 09:00:00 18.3 21 Sur 29 Sur 0 -- -- 34
2020-06-23 08:00:00 16.9 22 Sur 30 Sur 0 -- -- 37
2020-06-23 07:00:00 15.5 20 Sur 31 Sur 0 -- -- 51
2020-06-23 06:00:00 14.7 14 Sur 21 Sur 0 -- -- 53
2020-06-23 05:00:00 14.3 12 Sur 18 Sudoeste 0 -- -- 56
2020-06-23 04:00:00 14.8 13 Sudoeste 17 Sudoeste 0 -- -- 54
2020-06-23 03:00:00 14.9 10 Sur 17 Sudoeste 0 -- -- 51
2020-06-23 02:00:00 15.5 13 Sudoeste 16 Sudoeste 0 -- -- 48
2020-06-23 01:00:00 15.6 13 Sur 17 Sur 0 -- -- 51
2020-06-23 00:00:00 16.6 14 Sur 24 Sur 0 -- -- 62
2020-06-22 23:00:00 15 12 Sudoeste 14 Sudoeste 0 -- -- 64
2020-06-22 22:00:00 15 8 Sudoeste 10 Sudoeste 0 -- -- 80
2020-06-22 21:00:00 17.6 0 Calma 10 Noroeste 0 -- -- 69
2020-06-22 20:00:00 19.5 4 Noroeste 13 Noroeste 0 -- -- 67
2020-06-22 19:00:00 20.5 6 Norte 13 Oeste 0 -- -- 60
2020-06-22 18:00:00 20.9 5 Noroeste 14 Noroeste 0 -- -- 54
2020-06-22 17:00:00 21.2 6 Noroeste 15 Noroeste 0 -- -- 45
2020-06-22 16:00:00 21.5 5 Noroeste 15 Noroeste 0 -- -- 39
2020-06-22 15:00:00 22.5 5 Oeste 17 Sur 0 -- -- 32
2020-06-22 14:00:00 22.1 7 Sur 18 Sudeste 0 -- -- 31
2020-06-22 13:00:00 21.5 4 Nordeste 23 Este 0 -- -- 36
2020-06-22 12:00:00 20.3 8 Este 15 Este 0 -- -- 37
2020-06-22 11:00:00 18.2 4 Noroeste 9 Noroeste 0 -- -- 36
2020-06-22 10:00:00 17.2 4 Noroeste 8 Noroeste 0 -- -- 36
2020-06-22 09:00:00 16.9 3 Norte 6 Noroeste 0 -- -- 40
2020-06-22 08:00:00 13.4 5 Sudoeste 12 Sudoeste 0 -- -- 48
2020-06-22 07:00:00 10.4 11 Sudoeste 14 Sudoeste 0 -- -- 49
2020-06-22 06:00:00 9.2 10 Sudoeste 15 Sur 0 -- -- 47
2020-06-22 05:00:00 9.6 12 Sudoeste 14 Sudoeste 0 -- -- 41
2020-06-22 04:00:00 8.7 10 Sudoeste 14 Sudoeste 0 -- -- 34
2020-06-22 03:00:00 7.9 5 Sudoeste 10 Sur 0 -- -- 44
2020-06-22 02:00:00 7.6 6 Sur 10 Sur 0 -- -- 67
2020-06-22 01:00:00 7.6 7 Sudoeste 10 Sudoeste 0 -- -- 85
2020-06-22 00:00:00 10.4 0 Calma 11 Noroeste 0 -- -- 90
2020-06-21 23:00:00 10.9 4 Noroeste 17 Noroeste 0 -- -- 90
2020-06-21 22:00:00 11.3 8 Noroeste 14 Noroeste 0 -- -- 90
2020-06-21 21:00:00 11.4 9 Noroeste 14 Noroeste 0 -- -- 89
2020-06-21 20:00:00 11.8 5 Noroeste 13 Noroeste 0 -- -- 89
2020-06-21 19:00:00 12.2 6 Noroeste 17 Noroeste 0 -- -- 87
2020-06-21 18:00:00 12.5 8 Noroeste 16 Noroeste 0 -- -- 85
2020-06-21 17:00:00 13 10 Noroeste 20 Noroeste 0 -- -- 80
2020-06-21 16:00:00 14.2 10 Noroeste 21 Noroeste 0 -- -- 72
2020-06-21 15:00:00 16.7 8 Noroeste 22 Noroeste 0 -- -- 61
2020-06-21 14:00:00 17 9 Noroeste 19 Noroeste 0 -- -- 51
2020-06-21 13:00:00 17.1 5 Norte 19 Oeste 0 -- -- 51
2020-06-21 12:00:00 15.7 3 Noroeste 12 Noroeste 0 -- -- 51
2020-06-21 11:00:00 14.7 6 Noroeste 11 Noroeste 0 -- -- 44
2020-06-21 10:00:00 14.9 5 Noroeste 11 Noroeste 0 -- -- 47
2020-06-21 09:00:00 14.9 4 Este 15 Sudeste 0 -- -- 44
2020-06-21 08:00:00 13 9 Sudeste 15 Sudeste 0 -- -- 48
2020-06-21 07:00:00 11 8 Sur 18 Sur 0 -- -- 47
2020-06-21 06:00:00 10.8 14 Sur 18 Sur 0 -- -- 48
2020-06-21 05:00:00 9.3 11 Sudoeste 14 Sudoeste 0 -- -- 58
2020-06-21 04:00:00 8.7 11 Sudoeste 13 Sur 0 -- -- 70
2020-06-21 03:00:00 8.8 8 Sudoeste 12 Sur 0 -- -- 86
2020-06-21 02:00:00 9.2 0 Calma 7 Sur 0 -- -- 85
2020-06-21 01:00:00 10 2 Noroeste 10 Sur 0 -- -- 83
2020-06-21 00:00:00 8.9 5 Sudoeste 15 Sudoeste 0 -- -- 75
2020-06-20 23:00:00 9.4 8 Sur 12 Sur 0 -- -- 85
2020-06-20 22:00:00 11.7 3 Sudoeste 6 Oeste 0 -- -- 86
2020-06-20 21:00:00 12.3 0 Calma 9 Noroeste 0 -- -- 87
2020-06-20 20:00:00 12.7 3 Noroeste 8 Noroeste 0 -- -- 86
2020-06-20 19:00:00 13.1 5 Noroeste 16 Noroeste 0 -- -- 83
2020-06-20 18:00:00 15.8 4 Noroeste 13 Noroeste 0 -- -- 74
2020-06-20 17:00:00 15.5 5 Norte 18 Norte 0 -- -- 73
2020-06-20 16:00:00 17.1 6 Noroeste 16 Noroeste 0 -- -- 68
2020-06-20 15:00:00 16.4 7 Noroeste 17 Noroeste 0 -- -- 68
2020-06-20 14:00:00 16.6 7 Noroeste 14 Noroeste 0 -- -- 63
2020-06-20 13:00:00 16.3 7 Noroeste 21 Sudeste 0 -- -- 57
2020-06-20 12:00:00 16 9 Sur 28 Sudeste 0 -- -- 44
2020-06-20 11:00:00 14.6 13 Sur 24 Sur 0 -- -- 48
2020-06-20 10:00:00 13.6 13 Sur 21 Sur 0 -- -- 49
2020-06-20 09:00:00 11.9 11 Sur 21 Sur 0 -- -- 55
2020-06-20 08:00:00 10.6 13 Sur 22 Sur 0 -- -- 57
2020-06-20 07:00:00 8.1 9 Sur 19 Sur 0 -- -- 64
2020-06-20 06:00:00 8.1 9 Sur 18 Sur 0 -- -- 67
2020-06-20 05:00:00 7.9 13 Sur 17 Sudoeste 0 -- -- 74
2020-06-20 04:00:00 7.4 9 Sur 14 Sudoeste 0 -- -- 79
2020-06-20 03:00:00 7.5 8 Sudoeste 13 Sudoeste 0 -- -- 84
2020-06-20 02:00:00 7.8 10 Sudoeste 12 Sudoeste 0 -- -- 88
2020-06-20 01:00:00 7.9 7 Sudoeste 9 Sudoeste 0 -- -- 89
2020-06-20 00:00:00 9.4 3 Noroeste 7 Noroeste 0 -- -- 89
2020-06-19 23:00:00 9.6 3 Noroeste 8 Noroeste 0 -- -- 89
2020-06-19 22:00:00 9.7 2 Noroeste 7 Norte 0 -- -- 89
2020-06-19 21:00:00 10 3 Norte 11 Noroeste 0 -- -- 88
2020-06-19 20:00:00 10.5 7 Noroeste 12 Noroeste 0 -- -- 86
2020-06-19 19:00:00 11.5 6 Noroeste 13 Noroeste 0 -- -- 82
2020-06-19 18:00:00 12.4 6 Noroeste 12 Noroeste 0 -- -- 76
2020-06-19 17:00:00 13 5 Noroeste 13 Noroeste 0 -- -- 77
2020-06-19 16:00:00 11.5 7 Noroeste 14 Noroeste 0 -- -- 77
2020-06-19 15:00:00 12.1 6 Noroeste 17 Noroeste 0 -- -- 71
2020-06-19 14:00:00 13.7 5 Noroeste 14 Noroeste 0 -- -- 71
2020-06-19 13:00:00 12.5 6 Noroeste 14 Nordeste 0 -- -- 72
2020-06-19 12:00:00 12.4 5 Norte 11 Noroeste 0 -- -- 72
2020-06-19 11:00:00 11.1 5 Noroeste 14 Sur 0 -- -- 69
2020-06-19 10:00:00 10.7 7 Sur 21 Sudeste 0 -- -- 68
2020-06-19 09:00:00 9.2 4 Norte 30 Sur 0 -- -- 75
2020-06-19 08:00:00 8 13 Sur 25 Sur 0 -- -- 77
2020-06-19 07:00:00 6.4 14 Sudeste 21 Sudeste 0 -- -- 86
2020-06-19 06:00:00 3.5 4 Sudoeste 10 Sur 0 -- -- 87
2020-06-19 05:00:00 4.4 5 Sur 17 Sur 0 -- -- 86
2020-06-19 04:00:00 5.9 11 Sur 15 Sur 0 -- -- 90
2020-06-19 03:00:00 6 3 Sur 7 Sur 0.1 -- -- 90
2020-06-19 02:00:00 6.5 3 Norte 8 Noroeste 0 -- -- 90
2020-06-19 01:00:00 6.6 3 Noroeste 5 Noroeste 0.1 -- -- 90
2020-06-19 00:00:00 6.9 3 Norte 7 Noroeste 0.1 -- -- 90
2020-06-18 23:00:00 7 4 Noroeste 11 Noroeste 0.4 -- -- 90
2020-06-18 22:00:00 7 7 Noroeste 13 Noroeste 0.3 -- -- 90
2020-06-18 21:00:00 7.1 6 Noroeste 15 Noroeste 0.2 -- -- 90
2020-06-18 20:00:00 7.3 9 Noroeste 18 Noroeste 0 -- -- 90
2020-06-18 19:00:00 7.9 9 Noroeste 18 Noroeste 0 -- -- 87
2020-06-18 18:00:00 8.6 7 Noroeste 18 Noroeste 0 -- -- 82
2020-06-18 17:00:00 9.6 7 Noroeste 14 Noroeste 0 -- -- 75
2020-06-18 16:00:00 10 7 Noroeste 16 Noroeste 0 -- -- 71
2020-06-18 15:00:00 10.3 8 Noroeste 18 Noroeste 0 -- -- 72
2020-06-18 14:00:00 10.4 8 Noroeste 19 Noroeste 0 -- -- 71
2020-06-18 13:00:00 10.4 8 Noroeste 17 Noroeste 0 -- -- 69
2020-06-18 12:00:00 9.4 8 Noroeste 17 Noroeste 0 -- -- 71
2020-06-18 11:00:00 9.6 6 Noroeste 13 Noroeste 0 -- -- 71
2020-06-18 10:00:00 8.4 3 Norte 8 Noroeste 0 -- -- 75
2020-06-18 09:00:00 7.4 4 Noroeste 8 Noroeste 0 -- -- 81
2020-06-18 08:00:00 6.2 3 Este 10 Sudoeste 0 -- -- 89
2020-06-18 07:00:00 3 8 Sudoeste 12 Sur 0 -- -- 90
2020-06-18 06:00:00 3.6 3 Sur 5 Sur 0 -- -- 90
2020-06-18 05:00:00 4.9 3 Norte 9 Noroeste 0 -- -- 90
2020-06-18 04:00:00 5.2 5 Noroeste 9 Noroeste 0.2 -- -- 90
2020-06-18 03:00:00 5.3 2 Noroeste 6 Noroeste 0 -- -- 90
2020-06-18 02:00:00 5.2 3 Noroeste 9 Noroeste 0.1 -- -- 90
2020-06-18 01:00:00 5.7 2 Norte 11 Noroeste 0.1 -- -- 90
2020-06-18 00:00:00 5.6 3 Norte 12 Noroeste 1.7 -- -- 90
2020-06-17 23:00:00 5.9 5 Noroeste 14 Noroeste 0.8 -- -- 90
2020-06-17 22:00:00 6.2 6 Noroeste 17 Noroeste 0.2 -- -- 90
2020-06-17 21:00:00 6.2 6 Noroeste 17 Noroeste 0.8 -- -- 90
2020-06-17 20:00:00 6.6 8 Noroeste 16 Noroeste 0 -- -- 89
2020-06-17 19:00:00 7 6 Norte 14 Nordeste 0 -- -- 87
2020-06-17 18:00:00 7.6 4 Norte 15 Noroeste 0 -- -- 85
2020-06-17 17:00:00 7.4 6 Noroeste 12 Noroeste 0 -- -- 83
2020-06-17 16:00:00 8.3 5 Noroeste 11 Noroeste 0 -- -- 77
2020-06-17 15:00:00 9.2 5 Norte 10 Noroeste 0 -- -- 74
2020-06-17 14:00:00 8.5 4 Noroeste 13 Norte 0 -- -- 79
2020-06-17 13:00:00 7.3 6 Noroeste 13 Noroeste 0 -- -- 81
2020-06-17 12:00:00 7.2 6 Norte 13 Norte 0 -- -- 86
2020-06-17 11:00:00 7 5 Norte 9 Noroeste 0 -- -- 90
2020-06-17 10:00:00 6 4 Noroeste 9 Oeste 0 -- -- 90
2020-06-17 09:00:00 5 3 Noroeste 8 Noroeste 0 -- -- 90
2020-06-17 08:00:00 4.5 5 Noroeste 15 Noroeste 0 -- -- 90
2020-06-17 07:00:00 4.4 5 Noroeste 12 Noroeste 0 -- -- 90
2020-06-17 06:00:00 4.5 4 Noroeste 16 Noroeste 0.1 -- -- 90
2020-06-17 05:00:00 4.8 4 Norte 19 Noroeste 0.3 -- -- 90
2020-06-17 04:00:00 5.1 8 Noroeste 18 Noroeste 0.1 -- -- 90
2020-06-17 03:00:00 5.3 8 Noroeste 19 Noroeste 0.7 -- -- 90
2020-06-17 02:00:00 5.5 5 Noroeste 17 Noroeste 1.7 -- -- 90
2020-06-17 01:00:00 5.7 7 Noroeste 15 Noroeste 0 -- -- 90
2020-06-17 00:00:00 5.9 7 Noroeste -- -- -- -- -- 90
2020-06-16 23:00:00 6 9 Noroeste 19 Norte 0 -- -- 90
2020-06-16 22:00:00 6.3 11 Noroeste 24 Oeste 0 -- -- 90
2020-06-16 21:00:00 6.6 9 Noroeste 22 Noroeste 0 -- -- 90
2020-06-16 20:00:00 6.9 11 Noroeste 26 Noroeste 0 -- -- 90
2020-06-16 19:00:00 7.6 10 Noroeste 25 Noroeste 0.2 -- -- 90
2020-06-16 18:00:00 8.1 7 Noroeste 25 Noroeste 0.2 -- -- 89
2020-06-16 17:00:00 8.2 8 Noroeste 20 Noroeste 0 -- -- 89
2020-06-16 16:00:00 8.1 9 Noroeste 18 Noroeste 0 -- -- 89
2020-06-16 15:00:00 7.9 5 Norte 21 Noroeste 4.3 -- -- 89
2020-06-16 14:00:00 8.2 4 Norte 21 Noroeste 1 -- -- 87
2020-06-16 13:00:00 8.7 6 Norte 24 Sur 0.5 -- -- 81
2020-06-16 12:00:00 10.6 5 Sudoeste 18 Sur 0 -- -- 65
2020-06-16 11:00:00 9 7 Sur 22 Sur 0.6 -- -- 78
2020-06-16 10:00:00 7.8 11 Sur 22 Sudeste 0 -- -- 76
2020-06-16 09:00:00 7.6 11 Sur 21 Sudoeste 0.2 -- -- 75
2020-06-16 08:00:00 6.8 10 Sur 21 Sur 0.5 -- -- 76
2020-06-16 07:00:00 6.9 12 Sur 23 Sur 0 -- -- 73
2020-06-16 06:00:00 6.3 13 Sur 18 Sur 0 -- -- 73
2020-06-16 05:00:00 6.4 5 Sur 9 Sur 0 -- -- 77
2020-06-16 04:00:00 6.2 0 Calma 9 Sudoeste 0 -- -- 77
2020-06-16 03:00:00 6.3 6 Sudoeste 8 Sudoeste 0 -- -- 84
2020-06-16 02:00:00 6.9 4 Sudoeste 8 Sudoeste 0 -- -- 82
2020-06-16 01:00:00 7.3 0 Calma 7 Noroeste 0 -- -- 86
2020-06-16 00:00:00 7.6 2 Oeste 12 Sudoeste 0 -- -- 88
2020-06-15 23:00:00 7.8 3 Noroeste 14 Norte 0 -- -- 89
2020-06-15 22:00:00 8.3 4 Oeste 14 Sudoeste 0 -- -- 88
2020-06-15 21:00:00 8.7 6 Noroeste 14 Norte 0 -- -- 87
2020-06-15 20:00:00 8.9 8 Noroeste 16 Noroeste 0 -- -- 85
2020-06-15 19:00:00 10.8 3 Noroeste 10 Oeste 0 -- -- 79
2020-06-15 18:00:00 10 6 Noroeste 15 Noroeste 0 -- -- 80
2020-06-15 17:00:00 10.3 6 Noroeste 18 Noroeste 0 -- -- 74
2020-06-15 16:00:00 11.4 5 Noroeste 16 Noroeste 0 -- -- 70
2020-06-15 15:00:00 11.8 7 Noroeste 15 Noroeste 0 -- -- 66
2020-06-15 14:00:00 11.5 6 Noroeste 15 Noroeste 0 -- -- 62
2020-06-15 13:00:00 10.9 5 Noroeste 12 Noroeste 0 -- -- 60
2020-06-15 12:00:00 12 3 Norte 9 Norte 0 -- -- 59
2020-06-15 11:00:00 10.4 2 Norte 11 Este 0 -- -- 57
2020-06-15 10:00:00 8.7 7 Sur 17 Sudeste 0 -- -- 63
2020-06-15 09:00:00 9 6 Sudeste 13 Sudeste 0 -- -- 65
2020-06-15 08:00:00 7.5 0 Calma 8 Sudoeste 0 -- -- 77
2020-06-15 07:00:00 3.6 8 Sudoeste 12 Sur 0 -- -- 84
2020-06-15 06:00:00 2.8 5 Sudoeste 9 Sur 0 -- -- 84
2020-06-15 05:00:00 3.5 6 Sudoeste 12 Sudoeste 0 -- -- 83
2020-06-15 04:00:00 4 7 Sudoeste 12 Sudoeste 0 -- -- 85
2020-06-15 03:00:00 4.4 8 Sudoeste 12 Sur 0 -- -- 85
2020-06-15 02:00:00 4.5 5 Sur 9 Sudoeste 0 -- -- 85
2020-06-15 01:00:00 7 3 Sudoeste 9 Sudoeste 0 -- -- 86
2020-06-15 00:00:00 7 0 Calma 8 Noroeste 0 -- -- 85
2020-06-14 23:00:00 7.6 0 Calma 6 Norte 0 -- -- 85
2020-06-14 22:00:00 7.7 0 Calma 6 Noroeste 0 -- -- 85
2020-06-14 21:00:00 7.8 3 Norte 10 Noroeste 0 -- -- 85
2020-06-14 20:00:00 8.4 4 Noroeste 12 Noroeste 0 -- -- 82
2020-06-14 19:00:00 9.7 4 Norte 12 Noroeste 0 -- -- 76
2020-06-14 18:00:00 9.8 5 Noroeste 14 Noroeste 0 -- -- 68
2020-06-14 17:00:00 10.4 5 Noroeste 16 Noroeste 0 -- -- 64
2020-06-14 16:00:00 10.4 8 Noroeste 18 Oeste 0 -- -- 55
2020-06-14 15:00:00 11.3 6 Noroeste 19 Sudoeste 0 -- -- 54
2020-06-14 14:00:00 10.8 6 Oeste 19 Sudoeste 0 -- -- 52
2020-06-14 13:00:00 10.7 8 Sudoeste 22 Sudoeste 0 -- -- 52
2020-06-14 12:00:00 9.9 9 Sur 26 Sur 0 -- -- 55
2020-06-14 11:00:00 8.6 5 Sudoeste 18 Noroeste 0 -- -- 60
2020-06-14 10:00:00 8.2 5 Sudoeste 17 Sur 0 -- -- 62
2020-06-14 09:00:00 7.8 9 Sudeste 17 Sudeste 0 -- -- 61
2020-06-14 08:00:00 6 11 Sur 15 Sur 0 -- -- 67
2020-06-14 07:00:00 3.8 8 Sudoeste 12 Sudoeste 0 -- -- 76
2020-06-14 06:00:00 3.5 5 Sur 9 Sur 0 -- -- 77
2020-06-14 05:00:00 3.7 2 Sur 15 Este 0 -- -- 72
2020-06-14 04:00:00 4 3 Este 10 Sudoeste 0 -- -- 73
2020-06-14 03:00:00 3.6 6 Sudoeste 13 Sudoeste 0 -- -- 72
2020-06-14 02:00:00 4.5 0 Calma 13 Sudeste 0 -- -- 67
2020-06-14 01:00:00 5.8 5 Sur 11 Sur 0 -- -- 71
2020-06-14 00:00:00 5.8 3 Noroeste 13 Norte 0 -- -- 70
2020-06-13 23:00:00 5.8 3 Sudoeste 17 Sudoeste 0 -- -- 67
2020-06-13 22:00:00 7 10 Sudoeste 17 Sur 0 -- -- 64
2020-06-13 21:00:00 8.3 6 Sudoeste 16 Sudoeste 0 -- -- 61
2020-06-13 20:00:00 9.2 8 Sur 20 Sudoeste 0 -- -- 58
2020-06-13 19:00:00 9.9 8 Oeste 20 Oeste 0 -- -- 52
2020-06-13 18:00:00 11.3 10 Sudoeste 36 Norte 0 -- -- 51
2020-06-13 17:00:00 11.4 13 Sudoeste 30 Sudoeste 0 -- -- 55
2020-06-13 16:00:00 11.3 7 Oeste 28 Oeste 0 -- -- 56
2020-06-13 15:00:00 10.4 8 Noroeste 28 Sur 0 -- -- 57
2020-06-13 14:00:00 10.1 10 Sur 28 Sudoeste 0 -- -- 59
2020-06-13 13:00:00 9.1 5 Sur 22 Noroeste 0 -- -- 60
2020-06-13 12:00:00 10.8 5 Noroeste 23 Noroeste 0 -- -- 59
2020-06-13 11:00:00 8.6 3 Oeste 27 Sudoeste 0 -- -- 64
2020-06-13 10:00:00 6.5 5 Sudoeste 20 Sudoeste 0 -- -- 68
2020-06-13 09:00:00 5.9 7 Sudoeste 20 Noroeste 0 -- -- 70
2020-06-13 08:00:00 5.4 4 Oeste 26 Sur 0 -- -- 71
2020-06-13 07:00:00 5.2 8 Sudoeste 26 Oeste 0 -- -- 71
2020-06-13 06:00:00 5 9 Sudoeste 32 Sur 0 -- -- 73
2020-06-13 05:00:00 5 15 Sudoeste 29 Sudoeste 0 -- -- 74
2020-06-13 04:00:00 5.2 9 Sudoeste 26 Sudoeste 0.1 -- -- 72
2020-06-13 03:00:00 4.7 6 Sudoeste 14 Sudoeste 0.1 -- -- 78
2020-06-13 02:00:00 4.8 0 Calma 28 Noroeste 0.2 -- -- 81
2020-06-13 01:00:00 4.8 2 Sur 11 Sur 0.1 -- -- 82
2020-06-13 00:00:00 4.7 0 Calma 15 Noroeste 0.1 -- -- 78
2020-06-12 23:00:00 5.5 2 Sudoeste 16 Noroeste 0 -- -- 73
2020-06-12 22:00:00 6 2 Oeste 19 Noroeste 0 -- -- 67
2020-06-12 21:00:00 6.7 7 Sudoeste 28 Sudoeste 0 -- -- 61
2020-06-12 20:00:00 7.5 2 Sur 25 Sudoeste 0 -- -- 58
2020-06-12 19:00:00 9.1 5 Oeste 21 Oeste 0 -- -- 57
2020-06-12 18:00:00 7.5 3 Sudoeste 22 Noroeste 0 -- -- 63
2020-06-12 17:00:00 7.7 9 Noroeste 27 Noroeste 0 -- -- 64
2020-06-12 16:00:00 7 4 Sudoeste 22 Sudoeste 0 -- -- 73
2020-06-12 15:00:00 4.1 3 Norte 24 Oeste 4.8 -- -- 83
2020-06-12 14:00:00 5.2 5 Noroeste 24 Sur 0.4 -- -- 75
2020-06-12 13:00:00 4.7 15 Sur 24 Sur 0.5 -- -- 74
2020-06-12 12:00:00 7.1 6 Sudoeste 22 Sur 0 -- -- 68
2020-06-12 11:00:00 5.2 6 Sudoeste 21 Sudoeste 0 -- -- 71
2020-06-12 10:00:00 4.6 3 Nordeste 22 Oeste 0 -- -- 73
2020-06-12 09:00:00 4.9 4 Noroeste 25 Oeste 0 -- -- 74
2020-06-12 08:00:00 3.2 5 Noroeste 22 Noroeste 0 -- -- 81
2020-06-12 07:00:00 2.4 0 Calma 10 Noroeste 0.5 -- -- 87
2020-06-12 06:00:00 2.6 0 Calma 17 Noroeste 1.2 -- -- 86
2020-06-12 05:00:00 3.2 6 Noroeste 16 Sudoeste 0.3 -- -- 82
2020-06-12 04:00:00 3.8 4 Nordeste 23 Sudoeste 0.4 -- -- 77
2020-06-12 03:00:00 3.2 8 Sur 28 Sudeste 0.6 -- -- 82
2020-06-12 02:00:00 2.9 16 Sur 41 Sur 0.8 -- -- 82
2020-06-12 01:00:00 3.1 18 Sur 39 Sur 0.3 -- -- 81
2020-06-12 00:00:00 2.9 18 Sur 38 Sur 0.4 -- -- 80
2020-06-11 23:00:00 3.2 13 Sudeste 38 Sur 0 -- -- 74
2020-06-11 22:00:00 3.8 20 Sudoeste 50 Sudoeste 0 -- -- 63
2020-06-11 21:00:00 3.4 18 Sudoeste 40 Sur 0 -- -- 65
2020-06-11 20:00:00 4.2 8 Sur 24 Sur 1.1 -- -- 74
2020-06-11 19:00:00 2.8 9 Norte 27 Noroeste 2.7 -- -- 83
2020-06-11 18:00:00 5.8 10 Noroeste 26 Noroeste 0.1 -- -- 86
2020-06-11 17:00:00 5.1 12 Norte 23 Nordeste 0 -- -- 87
2020-06-11 16:00:00 6.2 8 Nordeste 20 Noroeste 0 -- -- 86
2020-06-11 15:00:00 5.6 6 Norte 17 Oeste 0.9 -- -- 88
2020-06-11 14:00:00 5.8 7 Noroeste 17 Noroeste 0.8 -- -- 88
2020-06-11 13:00:00 4.9 8 Norte 34 Oeste 0.7 -- -- 86
2020-06-11 12:00:00 7.7 4 Norte 24 Noroeste 0.6 -- -- 80
2020-06-11 11:00:00 9.3 6 Noroeste 21 Noroeste 0 -- -- 76
2020-06-11 10:00:00 7.9 6 Noroeste 19 Noroeste 0 -- -- 81
2020-06-11 09:00:00 8.7 0 Calma 17 Noroeste 0 -- -- 72
2020-06-11 08:00:00 8.4 3 Norte 15 Noroeste 0 -- -- 79
2020-06-11 07:00:00 7 2 Sur 8 Este 0 -- -- 81
2020-06-11 06:00:00 5.9 2 Noroeste 9 Sur 0 -- -- 82
2020-06-11 05:00:00 6.2 0 Calma 9 Sur 0 -- -- 81
2020-06-11 04:00:00 6.1 8 Sudoeste 14 Sudoeste 0 -- -- 81
2020-06-11 03:00:00 5.9 3 Sur 9 Sur 0 -- -- 87
2020-06-11 02:00:00 5.9 4 Sur 7 Sur 0 -- -- 88
2020-06-11 01:00:00 5.8 4 Sudoeste 6 Sur 0 -- -- 89
2020-06-11 00:00:00 6.3 3 Sur 5 Sudoeste 0 -- -- 89
2020-06-10 23:00:00 6.7 0 Calma 5 Noroeste 0 -- -- 89
2020-06-10 22:00:00 6.7 0 Calma 4 Noroeste 0 -- -- 89
2020-06-10 21:00:00 6.8 0 Calma 9 Norte 0 -- -- 89
2020-06-10 20:00:00 7 3 Noroeste 9 Noroeste 0 -- -- 89
2020-06-10 19:00:00 7.1 6 Noroeste 11 Noroeste 0 -- -- 88
2020-06-10 18:00:00 7.2 5 Noroeste 12 Noroeste 0 -- -- 87
2020-06-10 17:00:00 7.4 5 Noroeste 13 Noroeste 0 -- -- 86
2020-06-10 16:00:00 7.8 3 Noroeste 16 Noroeste 0 -- -- 85
2020-06-10 15:00:00 8.1 3 Noroeste 12 Noroeste 0 -- -- 84
2020-06-10 14:00:00 7 3 Noroeste 9 Norte 0 -- -- 86
2020-06-10 13:00:00 6.7 5 Noroeste 10 Noroeste 0 -- -- 85
2020-06-10 12:00:00 7 5 Noroeste 12 Noroeste 0 -- -- 81
2020-06-10 11:00:00 9.2 6 Noroeste 15 Sur 0 -- -- 73
2020-06-10 10:00:00 8.7 10 Sur 21 Sur 0 -- -- 67
2020-06-10 09:00:00 7.9 6 Sur 31 Sur 0 -- -- 68
2020-06-10 08:00:00 6.3 17 Sur 25 Sur 0 -- -- 73
2020-06-10 07:00:00 4.6 3 Sur 21 Sur 0 -- -- 77
2020-06-10 06:00:00 5.1 6 Sur 18 Sur 0 -- -- 80
2020-06-10 05:00:00 4.9 15 Sur 29 Sudeste 0 -- -- 85
2020-06-10 04:00:00 4.5 12 Sur 20 Sur 0.1 -- -- 89
2020-06-10 03:00:00 4.5 0 Calma 6 Oeste 0 -- -- 89
2020-06-10 02:00:00 4.7 0 Calma 8 Noroeste 0 -- -- 89
2020-06-10 01:00:00 4.8 2 Noroeste 6 Norte 0 -- -- 89
2020-06-10 00:00:00 5 4 Noroeste 7 Noroeste 0.1 -- -- 89
2020-06-09 23:00:00 5.2 2 Noroeste 9 Noroeste 0 -- -- 89
2020-06-09 22:00:00 5.2 5 Noroeste 12 Noroeste 0 -- -- 89
2020-06-09 21:00:00 5.4 7 Noroeste 17 Oeste 0 -- -- 88
2020-06-09 20:00:00 5.7 6 Norte 14 Noroeste 0 -- -- 86
2020-06-09 19:00:00 6 7 Noroeste 18 Noroeste 0 -- -- 84
2020-06-09 18:00:00 6.1 8 Noroeste 20 Noroeste 0 -- -- 81
2020-06-09 17:00:00 7.6 9 Noroeste 18 Noroeste 0 -- -- 82
2020-06-09 16:00:00 6.3 5 Noroeste 17 Noroeste 0 -- -- 81
2020-06-09 15:00:00 6.6 6 Noroeste 20 Noroeste 0 -- -- 81
2020-06-09 14:00:00 6.4 7 Noroeste 18 Noroeste 0 -- -- 81
2020-06-09 13:00:00 7.2 7 Noroeste 19 Norte 0 -- -- 88
2020-06-09 12:00:00 6.3 8 Noroeste 15 Noroeste 0 -- -- 90
2020-06-09 11:00:00 5.2 7 Noroeste 13 Noroeste 0 -- -- 90
2020-06-09 10:00:00 4.3 6 Noroeste 11 Noroeste 0 -- -- 90
2020-06-09 09:00:00 3.5 5 Noroeste 12 Noroeste 0 -- -- 90
2020-06-09 08:00:00 2.7 8 Noroeste 13 Noroeste 0 -- -- 90
2020-06-09 07:00:00 3 5 Noroeste 18 Noroeste 0 -- -- 90
2020-06-09 06:00:00 2.7 3 Noroeste 17 Noroeste 0 -- -- 90
2020-06-09 05:00:00 3.3 6 Noroeste 18 Noroeste 0 -- -- 90
2020-06-09 04:00:00 3.2 7 Noroeste 20 Noroeste 0 -- -- 90
2020-06-09 03:00:00 3.3 12 Noroeste 24 Noroeste 0 -- -- 90
2020-06-09 02:00:00 3.4 14 Noroeste 25 Noroeste 0 -- -- 90
2020-06-09 01:00:00 3.5 13 Noroeste 28 Noroeste 0 -- -- 90
2020-06-09 00:00:00 3.5 15 Noroeste 31 Noroeste 0 -- -- 90
2020-06-08 23:00:00 4 14 Noroeste 34 Noroeste 0 -- -- 90
2020-06-08 22:00:00 4.3 16 Noroeste 30 Noroeste 0.1 -- -- 90
2020-06-08 21:00:00 4.2 15 Noroeste 32 Noroeste 2.3 -- -- 90
2020-06-08 20:00:00 4.3 13 Noroeste 31 Noroeste 0.1 -- -- 90
2020-06-08 19:00:00 4.5 16 Noroeste 42 Noroeste 1 -- -- 90
2020-06-08 18:00:00 4.9 10 Noroeste 34 Noroeste 0.7 -- -- 90
2020-06-08 17:00:00 4.8 16 Noroeste 32 Noroeste 0 -- -- 90
2020-06-08 16:00:00 4.7 9 Noroeste 31 Noroeste 0 -- -- 90
2020-06-08 15:00:00 4.9 12 Noroeste 26 Noroeste 0.2 -- -- 90
2020-06-08 14:00:00 4.2 12 Noroeste 28 Noroeste 0 -- -- 90
2020-06-08 13:00:00 4 15 Noroeste 45 Oeste 1 -- -- 90
2020-06-08 12:00:00 4 15 Noroeste 34 Noroeste 0.8 -- -- 90
2020-06-08 11:00:00 3.6 12 Noroeste 26 Oeste 0.5 -- -- 90
2020-06-08 10:00:00 3.1 7 Noroeste 18 Noroeste 0.7 -- -- 90
2020-06-08 09:00:00 2.5 7 Noroeste 18 Noroeste 0.2 -- -- 90
2020-06-08 08:00:00 2 6 Noroeste 21 Noroeste 0.3 -- -- 90
2020-06-08 07:00:00 1.6 10 Noroeste 19 Noroeste 0 -- -- 90
2020-06-08 06:00:00 1.8 5 Noroeste 15 Noroeste 0 -- -- 90
2020-06-08 05:00:00 1.7 8 Noroeste 15 Noroeste 0 -- -- 90
2020-06-08 04:00:00 1.9 5 Noroeste 14 Noroeste 0 -- -- 90
2020-06-08 03:00:00 1.9 6 Noroeste 13 Noroeste 0 -- -- 90
2020-06-08 02:00:00 2.1 5 Noroeste 16 Noroeste 0 -- -- 90
2020-06-08 01:00:00 2.1 9 Noroeste 19 Noroeste 0 -- -- 90
2020-06-08 00:00:00 2.7 10 Noroeste 28 Noroeste 0 -- -- 90